createdAt,value
2017-08-17T00:01:35.863Z,9.23
2017-08-17T00:04:03.324Z,9.43
2017-08-17T00:06:30.844Z,9.07
2017-08-17T00:08:58.416Z,8.03
2017-08-17T00:11:25.980Z,9.20
2017-08-17T00:13:53.635Z,8.70
2017-08-17T00:16:21.142Z,10.23
2017-08-17T00:18:48.687Z,9.13
2017-08-17T00:21:16.239Z,9.00
2017-08-17T00:23:43.718Z,9.50
2017-08-17T00:26:11.517Z,9.60
2017-08-17T00:28:39.045Z,9.90
2017-08-17T00:31:06.569Z,10.07
2017-08-17T00:33:34.059Z,8.87
2017-08-17T00:36:01.732Z,9.87
2017-08-17T00:38:29.277Z,9.90
2017-08-17T00:40:56.762Z,10.43
2017-08-17T00:43:24.321Z,10.37
2017-08-17T00:45:51.785Z,12.47
2017-08-17T00:48:19.260Z,10.67
2017-08-17T00:50:46.764Z,12.00
2017-08-17T00:53:14.245Z,12.00
2017-08-17T00:55:41.722Z,11.47
2017-08-17T00:58:10.287Z,11.03
2017-08-17T01:00:37.770Z,10.53
2017-08-17T01:03:05.288Z,11.40
2017-08-17T01:05:32.786Z,11.87
2017-08-17T01:08:00.379Z,11.10
2017-08-17T01:10:27.851Z,10.90
2017-08-17T01:12:55.364Z,11.63
2017-08-17T01:15:22.930Z,12.00
2017-08-17T01:17:50.453Z,11.60
2017-08-17T01:20:17.965Z,10.57
2017-08-17T01:22:45.437Z,10.33
2017-08-17T01:25:12.925Z,10.40
2017-08-17T01:27:40.426Z,10.03
2017-08-17T01:30:07.892Z,10.37
2017-08-17T01:32:35.411Z,10.67
2017-08-17T01:35:02.989Z,9.90
2017-08-17T01:37:30.498Z,10.10
2017-08-17T01:39:58.049Z,10.60
2017-08-17T01:42:25.574Z,10.77
2017-08-17T01:44:53.066Z,11.30
2017-08-17T01:47:26.286Z,9.90
2017-08-17T01:49:53.754Z,10.80
2017-08-17T01:52:21.250Z,10.00
2017-08-17T01:54:49.032Z,10.00
2017-08-17T01:57:16.679Z,9.97
2017-08-17T01:59:44.160Z,10.00
2017-08-17T02:02:11.824Z,10.13
2017-08-17T02:04:39.292Z,9.77
2017-08-17T02:07:06.769Z,10.50
2017-08-17T02:09:34.299Z,9.43
2017-08-17T02:12:01.791Z,10.07
2017-08-17T02:14:29.319Z,10.67
2017-08-17T02:16:57.102Z,10.20
2017-08-17T02:19:24.577Z,10.47
2017-08-17T02:21:52.089Z,9.90
2017-08-17T02:24:19.703Z,11.20
2017-08-17T02:26:47.177Z,8.80
2017-08-17T02:29:14.709Z,9.80
2017-08-17T02:31:42.253Z,10.67
2017-08-17T02:34:09.742Z,9.47
2017-08-17T02:36:37.274Z,10.40
2017-08-17T02:39:04.785Z,9.00
2017-08-17T02:41:32.263Z,9.90
2017-08-17T02:43:59.780Z,9.10
2017-08-17T02:46:27.528Z,9.80
2017-08-17T02:48:54.994Z,9.73
2017-08-17T02:51:22.469Z,10.83
2017-08-17T02:53:49.969Z,9.90
2017-08-17T02:56:17.485Z,8.50
2017-08-17T02:58:44.955Z,9.80
2017-08-17T03:01:12.841Z,8.90
2017-08-17T03:03:40.321Z,9.33
2017-08-17T03:06:07.830Z,8.83
2017-08-17T03:08:35.328Z,9.50
2017-08-17T03:11:02.882Z,10.10
2017-08-17T03:13:30.531Z,9.80
2017-08-17T03:15:58.378Z,10.40
2017-08-17T03:18:25.857Z,10.47
2017-08-17T03:20:53.370Z,9.63
2017-08-17T03:23:21.143Z,8.90
2017-08-17T03:25:48.662Z,9.20
2017-08-17T03:28:16.163Z,9.13
2017-08-17T03:30:43.758Z,9.43
2017-08-17T03:33:11.488Z,9.27
2017-08-17T03:35:38.968Z,9.77
2017-08-17T03:38:06.725Z,9.90
2017-08-17T03:40:34.197Z,10.03
2017-08-17T03:43:01.907Z,9.17
2017-08-17T03:45:29.578Z,9.70
2017-08-17T03:47:57.071Z,11.10
2017-08-17T03:50:24.998Z,10.17
2017-08-17T03:52:52.978Z,10.37
2017-08-17T03:55:20.469Z,9.97
2017-08-17T03:57:47.950Z,10.17
2017-08-17T04:00:15.452Z,9.60
2017-08-17T04:02:42.941Z,10.30
2017-08-17T04:05:10.431Z,10.40
2017-08-17T04:07:38.013Z,10.47
2017-08-17T04:10:05.554Z,8.97
2017-08-17T04:12:33.023Z,9.20
2017-08-17T04:15:00.681Z,9.77
2017-08-17T04:17:28.161Z,9.40
2017-08-17T04:19:55.789Z,9.63
2017-08-17T04:22:23.301Z,8.80
2017-08-17T04:24:50.768Z,8.70
2017-08-17T04:27:18.260Z,10.60
2017-08-17T04:29:45.773Z,10.43
2017-08-17T04:32:13.247Z,9.50
2017-08-17T04:34:40.730Z,9.43
2017-08-17T04:37:08.278Z,9.93
2017-08-17T04:39:35.748Z,9.47
2017-08-17T04:42:03.260Z,9.17
2017-08-17T04:44:30.769Z,8.60
2017-08-17T04:46:58.409Z,9.13
2017-08-17T04:49:25.882Z,9.70
2017-08-17T04:51:53.579Z,10.60
2017-08-17T04:54:21.100Z,9.10
2017-08-17T04:57:05.928Z,10.73
2017-08-17T04:59:33.402Z,9.00
2017-08-17T05:02:01.443Z,9.80
2017-08-17T05:04:29.162Z,8.73
2017-08-17T05:06:56.785Z,9.63
2017-08-17T05:09:24.295Z,8.93
2017-08-17T05:11:52.049Z,9.60
2017-08-17T05:14:19.523Z,9.10
2017-08-17T05:16:47.123Z,8.77
2017-08-17T05:19:14.914Z,8.00
2017-08-17T05:21:42.403Z,8.53
2017-08-17T05:24:10.062Z,8.93
2017-08-17T05:26:37.606Z,9.10
2017-08-17T05:29:05.086Z,9.20
2017-08-17T05:31:32.565Z,7.20
2017-08-17T05:34:00.110Z,7.37
2017-08-17T05:36:27.606Z,8.00
2017-08-17T05:38:55.076Z,7.57
2017-08-17T05:41:22.859Z,7.80
2017-08-17T05:43:50.324Z,7.70
2017-08-17T05:46:17.810Z,9.33
2017-08-17T05:48:45.662Z,8.20
2017-08-17T05:51:13.137Z,8.40
2017-08-17T05:53:40.726Z,8.37
2017-08-17T05:56:08.261Z,7.60
2017-08-17T05:58:35.956Z,8.20
2017-08-17T06:01:03.615Z,8.57
2017-08-17T06:03:31.436Z,8.00
2017-08-17T06:05:59.021Z,8.33
2017-08-17T06:08:26.515Z,9.20
2017-08-17T06:10:54.082Z,8.00
2017-08-17T06:13:21.602Z,8.00
2017-08-17T06:15:49.077Z,6.63
2017-08-17T06:18:16.611Z,7.07
2017-08-17T06:20:44.104Z,7.17
2017-08-17T06:23:11.669Z,8.20
2017-08-17T06:25:39.188Z,6.87
2017-08-17T06:28:06.689Z,7.43
2017-08-17T06:30:34.362Z,7.33
2017-08-17T06:33:02.269Z,7.20
2017-08-17T06:35:30.122Z,7.60
2017-08-17T06:37:57.629Z,7.77
2017-08-17T06:40:25.372Z,7.57
2017-08-17T06:42:52.861Z,7.07
2017-08-17T06:45:20.336Z,6.30
2017-08-17T06:47:47.863Z,8.07
2017-08-17T06:50:15.375Z,7.23
2017-08-17T06:52:42.912Z,6.10
2017-08-17T06:55:10.472Z,7.30
2017-08-17T06:57:38.091Z,5.97
2017-08-17T07:00:05.584Z,6.20
2017-08-17T07:02:33.125Z,6.30
2017-08-17T07:05:00.773Z,6.83
2017-08-17T07:07:28.477Z,7.00
2017-08-17T07:09:56.038Z,6.60
2017-08-17T07:12:23.525Z,7.10
2017-08-17T07:14:51.417Z,5.80
2017-08-17T07:17:18.915Z,6.53
2017-08-17T07:19:46.382Z,5.60
2017-08-17T07:22:13.919Z,6.80
2017-08-17T07:24:41.407Z,6.60
2017-08-17T07:27:08.986Z,6.17
2017-08-17T07:29:36.470Z,7.13
2017-08-17T07:32:05.368Z,5.87
2017-08-17T07:34:32.911Z,6.20
2017-08-17T07:37:00.464Z,6.50
2017-08-17T07:39:27.997Z,7.10
2017-08-17T07:41:55.480Z,6.60
2017-08-17T07:44:23.047Z,7.10
2017-08-17T07:46:50.575Z,6.10
2017-08-17T07:49:18.060Z,6.73
2017-08-17T07:51:45.581Z,9.93
2017-08-17T07:54:13.158Z,5.90
2017-08-17T07:56:40.678Z,6.07
2017-08-17T07:59:08.229Z,6.23
2017-08-17T08:01:35.853Z,6.50
2017-08-17T08:04:03.484Z,6.40
2017-08-17T08:06:31.067Z,5.63
2017-08-17T08:08:58.549Z,6.27
2017-08-17T08:11:26.125Z,7.07
2017-08-17T08:13:54.410Z,6.90
2017-08-17T08:16:21.883Z,7.30
2017-08-17T08:18:50.266Z,6.60
2017-08-17T08:21:17.753Z,6.60
2017-08-17T08:23:45.381Z,6.17
2017-08-17T08:26:12.972Z,6.97
2017-08-17T08:28:40.439Z,6.30
2017-08-17T08:31:08.159Z,7.33
2017-08-17T08:33:35.686Z,6.40
2017-08-17T08:36:03.954Z,7.30
2017-08-17T08:38:31.506Z,7.20
2017-08-17T08:40:59.097Z,6.60
2017-08-17T08:43:26.604Z,7.80
2017-08-17T08:45:54.187Z,6.40
2017-08-17T08:48:21.717Z,6.80
2017-08-17T08:50:49.197Z,6.60
2017-08-17T08:53:16.700Z,6.53
2017-08-17T08:55:44.288Z,6.80
2017-08-17T08:58:12.020Z,5.90
2017-08-17T09:00:39.566Z,6.00
2017-08-17T09:03:07.104Z,6.03
2017-08-17T09:05:34.653Z,6.80
2017-08-17T09:08:02.147Z,6.43
2017-08-17T09:10:29.885Z,7.20
2017-08-17T09:12:57.394Z,5.90
2017-08-17T09:15:24.911Z,6.40
2017-08-17T09:17:52.411Z,7.10
2017-08-17T09:20:19.880Z,8.53
2017-08-17T09:22:47.377Z,6.30
2017-08-17T09:25:14.883Z,7.57
2017-08-17T09:27:42.391Z,6.00
2017-08-17T09:30:09.939Z,7.97
2017-08-17T09:32:37.413Z,6.13
2017-08-17T09:35:04.880Z,7.57
2017-08-17T09:37:32.522Z,5.80
2017-08-17T09:40:00.035Z,6.67
2017-08-17T09:42:27.520Z,6.07
2017-08-17T09:44:55.044Z,6.33
2017-08-17T09:47:22.798Z,6.00
2017-08-17T09:49:50.324Z,4.63
2017-08-17T09:52:18.038Z,5.73
2017-08-17T09:54:45.621Z,5.70
2017-08-17T09:57:14.752Z,5.87
2017-08-17T09:59:42.275Z,5.80
2017-08-17T10:02:09.789Z,5.10
2017-08-17T10:04:37.271Z,4.40
2017-08-17T10:07:05.225Z,7.50
2017-08-17T10:09:32.716Z,6.17
2017-08-17T10:12:00.544Z,7.17
2017-08-17T10:14:28.053Z,5.13
2017-08-17T10:16:55.570Z,5.07
2017-08-17T10:19:23.184Z,4.63
2017-08-17T10:21:50.658Z,4.30
2017-08-17T10:24:18.165Z,4.50
2017-08-17T10:26:45.664Z,5.40
2017-08-17T10:29:13.180Z,4.30
2017-08-17T10:31:40.658Z,4.00
2017-08-17T10:34:08.156Z,3.87
2017-08-17T10:36:35.669Z,4.70
2017-08-17T10:39:03.205Z,3.80
2017-08-17T10:41:30.822Z,4.10
2017-08-17T10:43:59.255Z,4.37
2017-08-17T10:46:26.799Z,4.33
2017-08-17T10:48:54.407Z,3.53
2017-08-17T10:51:21.890Z,4.13
2017-08-17T10:53:49.369Z,5.00
2017-08-17T10:56:16.895Z,4.07
2017-08-17T10:58:44.416Z,4.30
2017-08-17T11:01:12.100Z,4.67
2017-08-17T11:03:39.569Z,4.57
2017-08-17T11:06:07.176Z,4.90
2017-08-17T11:08:34.733Z,4.37
2017-08-17T11:11:02.288Z,4.40
2017-08-17T11:13:29.850Z,3.97
2017-08-17T11:15:57.344Z,4.70
2017-08-17T11:18:24.913Z,4.40
2017-08-17T11:20:52.573Z,5.40
2017-08-17T11:23:21.177Z,7.67
2017-08-17T11:25:48.682Z,5.20
2017-08-17T11:28:16.380Z,5.03
2017-08-17T11:30:43.859Z,5.73
2017-08-17T11:33:11.515Z,7.30
2017-08-17T11:35:39.183Z,5.17
2017-08-17T11:38:06.663Z,6.27
2017-08-17T11:40:34.172Z,6.00
2017-08-17T11:43:01.724Z,6.40
2017-08-17T11:45:29.578Z,8.03
2017-08-17T11:47:57.126Z,6.17
2017-08-17T11:50:25.044Z,6.10
2017-08-17T11:52:52.526Z,8.30
2017-08-17T11:55:20.158Z,6.07
2017-08-17T11:57:47.671Z,6.43
2017-08-17T12:00:15.165Z,5.93
2017-08-17T12:02:42.686Z,5.23
2017-08-17T12:05:10.176Z,5.20
2017-08-17T12:07:37.834Z,6.80
2017-08-17T12:10:05.330Z,5.27
2017-08-17T12:12:32.852Z,6.30
2017-08-17T12:15:00.527Z,7.33
2017-08-17T12:17:28.123Z,6.80
2017-08-17T12:19:55.679Z,6.03
2017-08-17T12:22:23.239Z,5.03
2017-08-17T12:24:50.732Z,5.20
2017-08-17T12:27:18.215Z,5.20
2017-08-17T12:29:45.722Z,5.93
2017-08-17T12:32:13.250Z,4.80
2017-08-17T12:34:40.737Z,5.87
2017-08-17T12:37:08.207Z,6.10
2017-08-17T12:39:35.708Z,6.40
2017-08-17T12:42:03.304Z,5.97
2017-08-17T12:44:30.804Z,6.00
2017-08-17T12:46:58.294Z,5.47
2017-08-17T12:49:25.796Z,6.03
2017-08-17T12:51:53.292Z,6.87
2017-08-17T12:54:20.806Z,6.00
2017-08-17T12:56:48.264Z,5.30
2017-08-17T12:59:15.852Z,5.47
2017-08-17T13:01:43.342Z,7.03
2017-08-17T13:04:11.257Z,5.83
2017-08-17T13:06:38.789Z,6.20
2017-08-17T13:09:06.291Z,6.67
2017-08-17T13:11:33.836Z,5.87
2017-08-17T13:14:01.610Z,6.00
2017-08-17T13:16:29.161Z,7.03
2017-08-17T13:18:56.729Z,5.77
2017-08-17T13:21:24.268Z,6.47
2017-08-17T13:23:51.818Z,5.83
2017-08-17T13:26:19.285Z,5.40
2017-08-17T13:28:46.805Z,7.33
2017-08-17T13:31:14.285Z,6.20
2017-08-17T13:33:41.775Z,6.50
2017-08-17T13:36:09.264Z,6.30
2017-08-17T13:38:36.728Z,5.40
2017-08-17T13:41:04.229Z,4.90
2017-08-17T13:43:31.784Z,6.10
2017-08-17T13:45:59.442Z,5.90
2017-08-17T13:48:26.946Z,6.13
2017-08-17T13:50:54.495Z,5.17
2017-08-17T13:53:22.001Z,6.40
2017-08-17T13:55:49.676Z,5.40
2017-08-17T13:58:17.169Z,5.77
2017-08-17T14:00:44.780Z,5.57
2017-08-17T14:03:12.759Z,5.23
2017-08-17T14:05:40.279Z,5.20
2017-08-17T14:08:07.792Z,5.33
2017-08-17T14:10:35.350Z,5.43
2017-08-17T14:13:02.865Z,5.60
2017-08-17T14:15:30.496Z,5.07
2017-08-17T14:17:58.047Z,6.40
2017-08-17T14:20:25.543Z,6.00
2017-08-17T14:22:53.204Z,5.90
2017-08-17T14:25:20.926Z,5.50
2017-08-17T14:27:48.503Z,5.40
2017-08-17T14:30:16.017Z,6.07
2017-08-17T14:32:43.636Z,6.63
2017-08-17T14:35:11.220Z,5.67
2017-08-17T14:37:38.811Z,5.27
2017-08-17T14:40:06.339Z,6.10
2017-08-17T14:42:33.980Z,5.50
2017-08-17T14:45:01.489Z,7.70
2017-08-17T14:47:28.975Z,6.17
2017-08-17T14:49:56.494Z,6.80
2017-08-17T14:52:24.024Z,5.90
2017-08-17T14:54:51.519Z,6.47
2017-08-17T14:57:19.047Z,6.43
2017-08-17T14:59:46.612Z,6.50
2017-08-17T15:02:14.127Z,6.70
2017-08-17T15:04:41.623Z,5.27
2017-08-17T15:07:09.105Z,6.20
2017-08-17T15:09:36.596Z,6.20
2017-08-17T15:12:04.121Z,6.30
2017-08-17T15:14:31.609Z,5.30
2017-08-17T15:16:59.244Z,6.40
2017-08-17T15:19:26.783Z,6.63
2017-08-17T15:21:54.276Z,6.20
2017-08-17T15:24:21.805Z,6.67
2017-08-17T15:26:49.305Z,5.90
2017-08-17T15:29:16.795Z,6.20
2017-08-17T15:31:44.279Z,5.83
2017-08-17T15:34:12.153Z,6.60
2017-08-17T15:36:39.657Z,6.10
2017-08-17T15:39:07.141Z,6.13
2017-08-17T15:41:34.723Z,5.60
2017-08-17T15:44:02.448Z,7.17
2017-08-17T15:46:30.077Z,7.90
2017-08-17T15:48:57.577Z,7.07
2017-08-17T15:51:25.305Z,6.47
2017-08-17T15:53:52.795Z,6.97
2017-08-17T15:56:20.293Z,5.93
2017-08-17T15:58:47.770Z,7.00
2017-08-17T16:01:15.380Z,6.43
2017-08-17T16:03:42.865Z,6.93
2017-08-17T16:06:10.475Z,6.40
2017-08-17T16:08:38.086Z,7.40
2017-08-17T16:11:05.613Z,7.37
2017-08-17T16:13:33.140Z,7.80
2017-08-17T16:16:00.939Z,7.43
2017-08-17T16:18:28.514Z,6.83
2017-08-17T16:20:56.103Z,6.50
2017-08-17T16:23:23.617Z,7.20
2017-08-17T16:25:51.318Z,6.30
2017-08-17T16:28:18.825Z,6.30
2017-08-17T16:30:46.312Z,7.23
2017-08-17T16:33:13.824Z,6.80
2017-08-17T16:35:41.313Z,7.27
2017-08-17T16:38:08.863Z,7.43
2017-08-17T16:40:36.354Z,6.70
2017-08-17T16:43:04.120Z,7.17
2017-08-17T16:45:31.719Z,8.10
2017-08-17T16:47:59.320Z,9.03
2017-08-17T16:50:26.834Z,9.60
2017-08-17T16:52:54.315Z,7.13
2017-08-17T16:55:21.815Z,6.77
2017-08-17T16:57:49.323Z,6.90
2017-08-17T17:00:16.828Z,7.70
2017-08-17T17:02:44.358Z,7.77
2017-08-17T17:05:11.871Z,8.07
2017-08-17T17:07:39.504Z,6.87
2017-08-17T17:10:07.090Z,7.67
2017-08-17T17:12:34.576Z,8.20
2017-08-17T17:15:02.183Z,7.60
2017-08-17T17:17:29.740Z,6.87
2017-08-17T17:19:57.240Z,6.60
2017-08-17T17:22:24.717Z,8.30
2017-08-17T17:24:52.261Z,8.23
2017-08-17T17:27:19.797Z,8.53
2017-08-17T17:29:47.309Z,8.40
2017-08-17T17:32:14.805Z,9.10
2017-08-17T17:34:42.341Z,8.00
2017-08-17T17:37:09.972Z,9.20
2017-08-17T17:39:37.514Z,8.60
2017-08-17T17:42:05.039Z,9.47
2017-08-17T17:44:32.573Z,9.17
2017-08-17T17:47:00.098Z,9.97
2017-08-17T17:49:27.580Z,8.77
2017-08-17T17:51:55.120Z,9.63
2017-08-17T17:54:22.751Z,8.60
2017-08-17T17:56:50.348Z,9.50
2017-08-17T17:59:17.875Z,10.20
2017-08-17T18:01:45.383Z,8.90
2017-08-17T18:04:12.888Z,10.67
2017-08-17T18:06:40.415Z,9.77
2017-08-17T18:09:07.947Z,9.60
2017-08-17T18:11:35.622Z,10.10
2017-08-17T18:14:03.125Z,10.50
2017-08-17T18:16:30.823Z,9.77
2017-08-17T18:18:58.331Z,10.83
2017-08-17T18:21:25.802Z,10.63
2017-08-17T18:23:53.291Z,9.20
2017-08-17T18:26:20.807Z,10.13
2017-08-17T18:28:48.325Z,10.00
2017-08-17T18:31:15.803Z,9.83
2017-08-17T18:33:43.372Z,8.97
2017-08-17T18:36:11.087Z,9.07
2017-08-17T18:38:38.642Z,9.50
2017-08-17T18:41:06.137Z,10.40
2017-08-17T18:43:33.823Z,10.67
2017-08-17T18:46:01.522Z,9.60
2017-08-17T18:48:29.153Z,10.53
2017-08-17T18:50:56.661Z,9.80
2017-08-17T18:53:24.172Z,12.43
2017-08-17T18:55:51.700Z,11.30
2017-08-17T18:58:19.203Z,13.37
2017-08-17T19:00:46.701Z,11.97
2017-08-17T19:03:14.293Z,12.53
2017-08-17T19:05:41.776Z,12.23
2017-08-17T19:08:09.401Z,12.60
2017-08-17T19:10:36.950Z,11.97
2017-08-17T19:13:04.559Z,13.27
2017-08-17T19:15:32.321Z,14.70
2017-08-17T19:17:59.830Z,14.33
2017-08-17T19:20:27.403Z,15.37
2017-08-17T19:22:54.915Z,15.43
2017-08-17T19:25:22.878Z,14.70
2017-08-17T19:27:50.352Z,14.07
2017-08-17T19:30:17.977Z,14.27
2017-08-17T19:32:45.511Z,13.57
2017-08-17T19:35:13.003Z,11.50
2017-08-17T19:37:40.523Z,12.30
2017-08-17T19:40:08.063Z,11.30
2017-08-17T19:42:35.586Z,12.87
2017-08-17T19:45:03.078Z,11.50
2017-08-17T19:47:30.708Z,13.17
2017-08-17T19:49:58.297Z,13.27
2017-08-17T19:52:25.781Z,13.33
2017-08-17T19:54:53.267Z,13.70
2017-08-17T19:57:20.755Z,14.07
2017-08-17T19:59:48.254Z,14.10
2017-08-17T20:02:15.776Z,15.30
2017-08-17T20:04:43.361Z,14.60
2017-08-17T20:07:10.857Z,13.17
2017-08-17T20:09:38.361Z,13.93
2017-08-17T20:12:05.841Z,14.43
2017-08-17T20:14:33.376Z,13.93
2017-08-17T20:17:00.952Z,15.23
2017-08-17T20:19:28.533Z,14.47
2017-08-17T20:21:56.259Z,14.33
2017-08-17T20:24:23.743Z,14.53
2017-08-17T20:26:51.284Z,13.87
2017-08-17T20:29:18.795Z,13.50
2017-08-17T20:31:46.275Z,15.40
2017-08-17T20:34:13.795Z,13.90
2017-08-17T20:36:41.330Z,14.03
2017-08-17T20:39:09.062Z,13.57
2017-08-17T20:41:36.539Z,14.70
2017-08-17T20:44:04.126Z,14.63
2017-08-17T20:46:31.758Z,14.50
2017-08-17T20:48:59.321Z,12.77
2017-08-17T20:51:26.839Z,12.83
2017-08-17T20:53:54.458Z,12.70
2017-08-17T20:56:21.988Z,11.57
2017-08-17T20:58:49.641Z,11.10
2017-08-17T21:01:17.217Z,11.23
2017-08-17T21:03:44.709Z,10.90
2017-08-17T21:06:12.386Z,11.60
2017-08-17T21:08:39.941Z,11.40
2017-08-17T21:11:07.464Z,11.70
2017-08-17T21:13:34.973Z,11.80
2017-08-17T21:16:02.507Z,11.80
2017-08-17T21:18:30.105Z,11.73
2017-08-17T21:20:57.710Z,11.83
2017-08-17T21:23:25.190Z,10.83
2017-08-17T21:25:52.764Z,10.87
2017-08-17T21:28:20.255Z,10.07
2017-08-17T21:30:47.744Z,11.87
2017-08-17T21:33:15.231Z,11.07
2017-08-17T21:35:42.945Z,11.70
2017-08-17T21:38:10.589Z,10.80
2017-08-17T21:40:38.283Z,10.67
2017-08-17T21:43:05.798Z,11.53
2017-08-17T21:45:33.298Z,10.10
2017-08-17T21:48:01.021Z,9.53
2017-08-17T21:50:28.525Z,11.27
2017-08-17T21:52:56.032Z,10.00
2017-08-17T21:55:23.553Z,9.87
2017-08-17T21:57:51.043Z,10.00
2017-08-17T22:00:18.527Z,10.50
2017-08-17T22:02:46.027Z,10.90
2017-08-17T22:05:13.666Z,10.17
2017-08-17T22:07:41.137Z,10.87
2017-08-17T22:10:08.646Z,11.83
2017-08-17T22:12:36.125Z,10.70
2017-08-17T22:15:03.627Z,10.47
2017-08-17T22:17:31.305Z,10.47
2017-08-17T22:19:58.813Z,10.90
2017-08-17T22:22:26.302Z,11.17
2017-08-17T22:24:53.832Z,10.80
2017-08-17T22:27:21.739Z,10.40
2017-08-17T22:29:49.262Z,10.53
2017-08-17T22:32:16.824Z,10.40
2017-08-17T22:34:44.311Z,11.47
2017-08-17T22:37:11.831Z,9.87
2017-08-17T22:39:39.334Z,9.77
2017-08-17T22:42:06.811Z,10.80
2017-08-17T22:44:34.458Z,9.43
2017-08-17T22:47:02.018Z,11.83
2017-08-17T22:49:29.493Z,10.90
2017-08-17T22:51:56.989Z,9.67
2017-08-17T22:54:24.464Z,10.53
2017-08-17T22:56:51.958Z,10.77
2017-08-17T22:59:19.545Z,11.30
2017-08-17T23:01:47.048Z,11.60
2017-08-17T23:04:14.676Z,10.90
2017-08-17T23:06:42.276Z,10.47
2017-08-17T23:09:09.827Z,11.17
2017-08-17T23:11:37.356Z,11.00
2017-08-17T23:14:04.962Z,10.63
2017-08-17T23:16:32.453Z,10.90
2017-08-17T23:19:00.083Z,11.67
2017-08-17T23:21:27.557Z,11.50
2017-08-17T23:23:55.053Z,12.97
2017-08-17T23:26:22.551Z,12.17
2017-08-17T23:28:50.035Z,10.70
2017-08-17T23:31:17.550Z,10.67
2017-08-17T23:33:45.025Z,11.30
2017-08-17T23:36:12.689Z,11.80
2017-08-17T23:38:40.189Z,10.70
2017-08-17T23:41:07.824Z,10.10
2017-08-17T23:43:35.302Z,12.83
2017-08-17T23:46:03.577Z,11.20
2017-08-17T23:48:31.151Z,10.17
2017-08-17T23:50:59.504Z,11.30
2017-08-17T23:53:26.978Z,9.60
2017-08-17T23:55:55.342Z,12.40
2017-08-17T23:58:22.860Z,11.40
